Terminal Aerodrome Forecast
Issued by NWS Sioux Falls, SD

Home | Current Version | Previous Version | Text Only | Print | Product List | Glossary On
Versions: 1 2 3 4 5 6 7 8 9 10 11 12 13
000
FTUS43 KFSD 021733
TAFHON
TAF
KHON 021733Z 0218/0318 16017G26KT P6SM BKN070
     FM030000 16012G19KT P6SM BKN100
     FM030600 16012KT 3SM -SN BKN030 OVC060
     FM030800 05008KT 1SM -SN OVC015
     FM031500 34022G34KT 3/4SM -SN BLSN OVC010=

USA.gov is the U.S. government's official web portal to all federal, state and local government web resources and services.